createdAt,value
2017-12-02T00:02:18.877Z,97148.30
2017-12-02T00:04:44.987Z,97144.52
2017-12-02T00:07:11.092Z,97147.16
2017-12-02T00:09:37.245Z,97153.44
2017-12-02T00:12:03.311Z,97155.23
2017-12-02T00:14:29.404Z,97151.40
2017-12-02T00:16:55.537Z,97155.22
2017-12-02T00:19:21.739Z,97164.41
2017-12-02T00:21:47.856Z,97160.29
2017-12-02T00:24:13.885Z,97168.16
2017-12-02T00:26:40.037Z,97164.29
2017-12-02T00:29:06.144Z,97171.39
2017-12-02T00:31:32.359Z,97174.97
2017-12-02T00:33:58.480Z,97181.97
2017-12-02T00:36:24.696Z,97179.00
2017-12-02T00:38:50.760Z,97179.11
2017-12-02T00:41:16.845Z,97188.05
2017-12-02T00:43:42.993Z,97178.70
2017-12-02T00:46:09.185Z,97185.77
2017-12-02T00:48:35.320Z,97182.80
2017-12-02T00:51:01.438Z,97188.04
2017-12-02T00:53:27.643Z,97183.95
2017-12-02T00:55:53.792Z,97193.75
2017-12-02T00:58:19.892Z,97196.95
2017-12-02T01:00:46.016Z,97198.75
2017-12-02T01:03:12.113Z,97207.62
2017-12-02T01:05:38.231Z,97211.86
2017-12-02T01:08:04.332Z,97204.22
2017-12-02T01:10:30.520Z,97210.19
2017-12-02T01:12:56.624Z,97212.19
2017-12-02T01:15:22.725Z,97216.04
2017-12-02T01:17:48.876Z,97222.94
2017-12-02T01:20:15.012Z,97223.12
2017-12-02T01:22:41.175Z,97222.66
2017-12-02T01:25:07.323Z,97228.12
2017-12-02T01:27:33.441Z,97236.16
2017-12-02T01:29:59.565Z,97233.64
2017-12-02T01:32:25.720Z,97237.58
2017-12-02T01:34:51.837Z,97244.66
2017-12-02T01:37:17.948Z,97242.09
2017-12-02T01:39:44.116Z,97240.51
2017-12-02T01:42:10.207Z,97249.45
2017-12-02T01:44:36.306Z,97252.76
2017-12-02T01:47:02.435Z,97255.74
2017-12-02T01:49:28.501Z,97257.19
2017-12-02T01:51:54.652Z,97255.11
2017-12-02T01:54:20.824Z,97255.44
2017-12-02T01:56:47.447Z,97252.77
2017-12-02T01:59:13.624Z,97262.54
2017-12-02T02:01:39.807Z,97258.35
2017-12-02T02:04:05.939Z,97259.73
2017-12-02T02:06:32.054Z,97261.31
2017-12-02T02:08:58.160Z,97264.64
2017-12-02T02:11:24.256Z,97266.67
2017-12-02T02:13:50.358Z,97271.13
2017-12-02T02:16:16.506Z,97271.95
2017-12-02T02:18:42.631Z,97273.01
2017-12-02T02:21:09.108Z,97278.23
2017-12-02T02:23:35.202Z,97267.56
2017-12-02T02:26:01.342Z,97269.97
2017-12-02T02:28:27.463Z,97273.93
2017-12-02T02:30:53.585Z,97270.41
2017-12-02T02:33:20.176Z,97271.91
2017-12-02T02:35:46.360Z,97276.66
2017-12-02T02:38:12.459Z,97286.41
2017-12-02T02:40:38.604Z,97275.46
2017-12-02T02:43:04.767Z,97277.36
2017-12-02T02:45:30.889Z,97284.26
2017-12-02T02:47:56.992Z,97287.02
2017-12-02T02:50:23.152Z,97293.16
2017-12-02T02:52:49.284Z,97292.48
2017-12-02T02:55:15.442Z,97293.66
2017-12-02T02:57:41.575Z,97288.09
2017-12-02T03:00:07.712Z,97293.88
2017-12-02T03:02:33.859Z,97300.23
2017-12-02T03:04:59.896Z,97299.27
2017-12-02T03:07:25.988Z,97307.31
2017-12-02T03:09:52.144Z,97307.12
2017-12-02T03:12:18.210Z,97302.36
2017-12-02T03:14:44.283Z,97304.66
2017-12-02T03:17:10.394Z,97309.32
2017-12-02T03:19:36.499Z,97313.59
2017-12-02T03:22:02.609Z,97322.75
2017-12-02T03:24:28.680Z,97325.05
2017-12-02T03:26:54.796Z,97328.38
2017-12-02T03:29:20.852Z,97327.44
2017-12-02T03:31:46.979Z,97325.44
2017-12-02T03:34:13.099Z,97332.67
2017-12-02T03:36:39.252Z,97333.53
2017-12-02T03:39:05.325Z,97338.52
2017-12-02T03:41:32.004Z,97334.45
2017-12-02T03:43:58.068Z,97344.95
2017-12-02T03:46:24.127Z,97331.67
2017-12-02T03:48:50.215Z,97339.92
2017-12-02T03:51:16.316Z,97342.28
2017-12-02T03:53:42.432Z,97347.16
2017-12-02T03:56:08.543Z,97348.92
2017-12-02T03:58:34.676Z,97358.86
2017-12-02T04:01:00.844Z,97355.62
2017-12-02T04:03:26.935Z,97352.34
2017-12-02T04:05:53.049Z,97356.52
2017-12-02T04:08:19.156Z,97353.61
2017-12-02T04:10:45.385Z,97360.70
2017-12-02T04:13:11.472Z,97362.47
2017-12-02T04:15:37.544Z,97361.28
2017-12-02T04:18:03.711Z,97367.11
2017-12-02T04:20:29.907Z,97372.34
2017-12-02T04:22:55.991Z,97367.99
2017-12-02T04:25:22.068Z,97375.72
2017-12-02T04:27:48.161Z,97372.02
2017-12-02T04:30:14.282Z,97366.10
2017-12-02T04:32:40.360Z,97375.00
2017-12-02T04:35:06.437Z,97375.36
2017-12-02T04:37:32.543Z,97375.11
2017-12-02T04:39:58.572Z,97378.78
2017-12-02T04:42:24.663Z,97378.09
2017-12-02T04:44:50.740Z,97375.01
2017-12-02T04:47:16.853Z,97382.34
2017-12-02T04:49:42.944Z,97381.34
2017-12-02T04:52:09.061Z,97380.03
2017-12-02T04:54:35.140Z,97379.87
2017-12-02T04:57:01.305Z,97388.09
2017-12-02T04:59:27.438Z,97389.80
2017-12-02T05:01:53.569Z,97389.59
2017-12-02T05:04:19.680Z,97396.13
2017-12-02T05:06:45.755Z,97403.20
2017-12-02T05:09:11.851Z,97407.42
2017-12-02T05:11:37.931Z,97407.05
2017-12-02T05:14:04.096Z,97407.91
2017-12-02T05:16:30.200Z,97403.64
2017-12-02T05:18:56.236Z,97408.84
2017-12-02T05:21:22.321Z,97408.54
2017-12-02T05:23:48.397Z,97410.02
2017-12-02T05:26:14.465Z,97415.49
2017-12-02T05:28:40.579Z,97413.40
2017-12-02T05:31:06.644Z,97414.22
2017-12-02T05:33:32.728Z,97420.83
2017-12-02T05:35:58.756Z,97418.81
2017-12-02T05:38:24.876Z,97417.83
2017-12-02T05:40:50.961Z,97428.76
2017-12-02T05:43:17.015Z,97430.95
2017-12-02T05:45:43.116Z,97429.55
2017-12-02T05:48:09.260Z,97437.18
2017-12-02T05:50:35.344Z,97441.35
2017-12-02T05:53:01.477Z,97444.02
2017-12-02T05:55:27.576Z,97448.19
2017-12-02T05:57:53.624Z,97455.72
2017-12-02T06:00:19.769Z,97456.72
2017-12-02T06:02:46.220Z,97459.89
2017-12-02T06:05:12.308Z,97458.42
2017-12-02T06:07:38.440Z,97470.30
2017-12-02T06:10:04.488Z,97467.35
2017-12-02T06:12:30.560Z,97466.95
2017-12-02T06:14:56.720Z,97472.69
2017-12-02T06:17:22.796Z,97466.34
2017-12-02T06:19:48.889Z,97465.94
2017-12-02T06:22:14.969Z,97467.16
2017-12-02T06:24:41.027Z,97465.75
2017-12-02T06:27:07.139Z,97469.03
2017-12-02T06:29:33.244Z,97469.03
2017-12-02T06:31:59.335Z,97471.81
2017-12-02T06:34:25.472Z,97475.48
2017-12-02T06:36:51.616Z,97479.95
2017-12-02T06:39:18.263Z,97482.73
2017-12-02T06:41:44.384Z,97486.77
2017-12-02T06:44:10.500Z,97485.20
2017-12-02T06:46:36.606Z,97488.56
2017-12-02T06:49:02.748Z,97490.86
2017-12-02T06:51:28.867Z,97488.67
2017-12-02T06:53:54.996Z,97502.16
2017-12-02T06:56:21.086Z,97498.28
2017-12-02T06:58:47.152Z,97492.84
2017-12-02T07:01:13.283Z,97506.32
2017-12-02T07:03:39.411Z,97505.91
2017-12-02T07:06:05.531Z,97507.52
2017-12-02T07:08:31.631Z,97514.44
2017-12-02T07:10:57.783Z,97523.39
2017-12-02T07:13:23.916Z,97521.30
2017-12-02T07:15:50.063Z,97519.69
2017-12-02T07:18:16.187Z,97531.30
2017-12-02T07:20:42.212Z,97532.20
2017-12-02T07:23:08.350Z,97538.34
2017-12-02T07:25:34.488Z,97541.73
2017-12-02T07:28:00.574Z,97542.92
2017-12-02T07:30:26.698Z,97540.34
2017-12-02T07:32:52.779Z,97545.49
2017-12-02T07:35:18.904Z,97541.11
2017-12-02T07:37:45.012Z,97548.97
2017-12-02T07:40:11.108Z,97537.26
2017-12-02T07:42:37.308Z,97537.75
2017-12-02T07:45:03.504Z,97538.55
2017-12-02T07:47:29.595Z,97547.98
2017-12-02T07:49:55.693Z,97549.55
2017-12-02T07:52:21.720Z,97554.72
2017-12-02T07:54:47.839Z,97554.62
2017-12-02T07:57:13.888Z,97559.30
2017-12-02T07:59:40.052Z,97561.47
2017-12-02T08:02:06.160Z,97571.28
2017-12-02T08:04:32.321Z,97569.48
2017-12-02T08:06:58.347Z,97572.26
2017-12-02T08:09:24.399Z,97572.39
2017-12-02T08:11:50.539Z,97567.59
2017-12-02T08:14:16.635Z,97558.69
2017-12-02T08:16:42.737Z,97571.33
2017-12-02T08:19:08.847Z,97576.90
2017-12-02T08:21:34.894Z,97570.91
2017-12-02T08:24:00.961Z,97562.36
2017-12-02T08:26:27.103Z,97565.70
2017-12-02T08:28:53.209Z,97574.83
2017-12-02T08:31:19.336Z,97578.45
2017-12-02T08:33:45.430Z,97579.36
2017-12-02T08:36:11.513Z,97586.25
2017-12-02T08:38:37.607Z,97589.25
2017-12-02T08:41:03.720Z,97592.17
2017-12-02T08:43:33.753Z,97592.96
2017-12-02T08:46:00.675Z,97594.31
2017-12-02T08:48:27.700Z,97597.24
2017-12-02T08:50:53.847Z,97595.72
2017-12-02T08:53:19.982Z,97605.51
2017-12-02T08:55:46.043Z,97594.68
2017-12-02T08:58:12.136Z,97600.22
2017-12-02T09:00:38.232Z,97604.11
2017-12-02T09:03:04.373Z,97600.91
2017-12-02T09:05:30.445Z,97604.98
2017-12-02T09:07:56.530Z,97609.28
2017-12-02T09:10:22.610Z,97606.66
2017-12-02T09:12:48.700Z,97614.77
2017-12-02T09:15:14.783Z,97613.19
2017-12-02T09:17:40.867Z,97612.36
2017-12-02T09:20:06.992Z,97618.52
2017-12-02T09:22:33.087Z,97620.06
2017-12-02T09:24:59.164Z,97621.48
2017-12-02T09:27:25.244Z,97623.45
2017-12-02T09:29:51.368Z,97616.73
2017-12-02T09:32:18.065Z,97621.38
2017-12-02T09:34:44.152Z,97628.06
2017-12-02T09:37:10.302Z,97628.71
2017-12-02T09:39:36.363Z,97626.38
2017-12-02T09:42:02.462Z,97619.28
2017-12-02T09:44:28.580Z,97613.56
2017-12-02T09:46:54.650Z,97606.25
2017-12-02T09:49:20.701Z,97599.91
2017-12-02T09:51:46.764Z,97606.06
2017-12-02T09:54:12.875Z,97605.31
2017-12-02T09:56:38.945Z,97605.30
2017-12-02T09:59:04.988Z,97606.06
2017-12-02T10:01:31.148Z,97601.39
2017-12-02T10:03:57.226Z,97595.14
2017-12-02T10:06:23.307Z,97591.94
2017-12-02T10:08:49.424Z,97592.49
2017-12-02T10:11:15.515Z,97598.89
2017-12-02T10:13:41.670Z,97602.98
2017-12-02T10:16:07.794Z,97606.78
2017-12-02T10:18:33.927Z,97602.53
2017-12-02T10:20:59.959Z,97599.99
2017-12-02T10:23:26.126Z,97603.45
2017-12-02T10:25:52.365Z,97600.33
2017-12-02T10:28:18.468Z,97601.41
2017-12-02T10:30:44.551Z,97602.36
2017-12-02T10:33:10.706Z,97599.09
2017-12-02T10:35:36.852Z,97602.53
2017-12-02T10:38:02.956Z,97600.33
2017-12-02T10:40:29.141Z,97595.14
2017-12-02T10:42:55.434Z,97593.80
2017-12-02T10:45:21.520Z,97594.80
2017-12-02T10:47:47.644Z,97596.03
2017-12-02T10:50:13.822Z,97587.77
2017-12-02T10:52:39.941Z,97588.73
2017-12-02T10:55:06.016Z,97589.75
2017-12-02T10:57:32.112Z,97580.78
2017-12-02T10:59:58.243Z,97585.99
2017-12-02T11:02:24.308Z,97574.53
2017-12-02T11:04:50.476Z,97574.73
2017-12-02T11:07:16.575Z,97575.87
2017-12-02T11:09:42.657Z,97572.67
2017-12-02T11:12:08.724Z,97563.34
2017-12-02T11:14:34.914Z,97562.23
2017-12-02T11:17:01.057Z,97559.89
2017-12-02T11:19:27.166Z,97556.14
2017-12-02T11:21:53.326Z,97552.81
2017-12-02T11:24:19.499Z,97558.79
2017-12-02T11:26:45.722Z,97562.97
2017-12-02T11:29:11.924Z,97560.59
2017-12-02T11:31:37.980Z,97561.04
2017-12-02T11:34:04.124Z,97560.81
2017-12-02T11:36:30.280Z,97568.16
2017-12-02T11:38:56.424Z,97558.28
2017-12-02T11:41:22.547Z,97559.41
2017-12-02T11:43:48.668Z,97557.45
2017-12-02T11:46:14.752Z,97557.80
2017-12-02T11:48:40.957Z,97564.20
2017-12-02T11:51:07.195Z,97562.59
2017-12-02T11:53:33.400Z,97568.42
2017-12-02T11:55:59.549Z,97570.05
2017-12-02T11:58:25.674Z,97572.13
2017-12-02T12:00:51.838Z,97558.70
2017-12-02T12:03:17.958Z,97565.93
2017-12-02T12:05:44.082Z,97559.44
2017-12-02T12:08:10.235Z,97566.84
2017-12-02T12:10:36.353Z,97567.60
2017-12-02T12:13:02.557Z,97561.02
2017-12-02T12:15:28.713Z,97554.45
2017-12-02T12:17:54.914Z,97560.66
2017-12-02T12:20:21.027Z,97553.62
2017-12-02T12:22:47.149Z,97559.07
2017-12-02T12:25:13.285Z,97542.44
2017-12-02T12:27:39.392Z,97558.94
2017-12-02T12:30:05.549Z,97552.48
2017-12-02T12:32:31.733Z,97554.92
2017-12-02T12:34:58.653Z,97557.67
2017-12-02T12:37:24.776Z,97557.69
2017-12-02T12:39:50.904Z,97570.79
2017-12-02T12:42:17.044Z,97563.82
2017-12-02T12:44:43.181Z,97559.86
2017-12-02T12:47:09.309Z,97562.75
2017-12-02T12:49:35.548Z,97563.84
2017-12-02T12:52:01.700Z,97564.23
2017-12-02T12:54:27.867Z,97565.48
2017-12-02T12:56:54.016Z,97567.62
2017-12-02T12:59:20.298Z,97570.05
2017-12-02T13:01:46.465Z,97563.22
2017-12-02T13:04:12.656Z,97564.19
2017-12-02T13:06:38.856Z,97570.27
2017-12-02T13:09:04.964Z,97567.41
2017-12-02T13:11:31.120Z,97565.70
2017-12-02T13:13:57.268Z,97567.85
2017-12-02T13:16:23.360Z,97572.18
2017-12-02T13:18:49.539Z,97573.59
2017-12-02T13:21:15.643Z,97574.27
2017-12-02T13:23:41.755Z,97578.91
2017-12-02T13:26:07.929Z,97578.55
2017-12-02T13:28:34.071Z,97574.72
2017-12-02T13:31:00.220Z,97574.89
2017-12-02T13:33:26.323Z,97574.88
2017-12-02T13:35:52.459Z,97578.48
2017-12-02T13:38:18.571Z,97580.66
2017-12-02T13:40:44.708Z,97584.09
2017-12-02T13:43:10.833Z,97582.23
2017-12-02T13:45:36.965Z,97580.66
2017-12-02T13:48:03.102Z,97578.00
2017-12-02T13:50:29.391Z,97582.50
2017-12-02T13:52:55.607Z,97579.84
2017-12-02T13:55:21.843Z,97581.11
2017-12-02T13:57:47.905Z,97582.63
2017-12-02T14:00:14.044Z,97580.48
2017-12-02T14:02:40.200Z,97575.58
2017-12-02T14:05:06.508Z,97580.31
2017-12-02T14:07:32.638Z,97580.70
2017-12-02T14:09:58.784Z,97582.03
2017-12-02T14:12:24.884Z,97579.55
2017-12-02T14:14:51.061Z,97579.64
2017-12-02T14:17:17.102Z,97591.38
2017-12-02T14:19:43.244Z,97593.95
2017-12-02T14:22:09.330Z,97591.05
2017-12-02T14:24:35.467Z,97595.59
2017-12-02T14:27:01.612Z,97601.86
2017-12-02T14:29:27.737Z,97604.57
2017-12-02T14:31:53.908Z,97608.35
2017-12-02T14:34:20.039Z,97604.17
2017-12-02T14:36:46.156Z,97605.50
2017-12-02T14:39:12.357Z,97608.16
2017-12-02T14:41:38.453Z,97601.04
2017-12-02T14:44:04.584Z,97600.44
2017-12-02T14:46:30.677Z,97609.81
2017-12-02T14:48:56.781Z,97612.52
2017-12-02T14:51:22.968Z,97615.23
2017-12-02T14:53:49.052Z,97613.53
2017-12-02T14:56:15.168Z,97614.55
2017-12-02T14:58:41.273Z,97618.33
2017-12-02T15:01:07.391Z,97615.50
2017-12-02T15:03:33.687Z,97620.02
2017-12-02T15:05:59.802Z,97610.88
2017-12-02T15:08:25.996Z,97608.22
2017-12-02T15:10:52.121Z,97615.22
2017-12-02T15:13:18.246Z,97615.73
2017-12-02T15:15:44.365Z,97616.29
2017-12-02T15:18:11.359Z,97610.03
2017-12-02T15:20:37.600Z,97612.73
2017-12-02T15:23:03.776Z,97617.41
2017-12-02T15:25:29.900Z,97617.81
2017-12-02T15:27:56.092Z,97620.19
2017-12-02T15:30:23.060Z,97624.14
2017-12-02T15:32:49.211Z,97621.48
2017-12-02T15:35:15.297Z,97620.75
2017-12-02T15:37:41.469Z,97622.38
2017-12-02T15:40:07.592Z,97628.27
2017-12-02T15:42:33.696Z,97637.63
2017-12-02T15:44:59.892Z,97636.28
2017-12-02T15:47:26.036Z,97643.95
2017-12-02T15:49:52.206Z,97642.59
2017-12-02T15:52:18.331Z,97645.92
2017-12-02T15:54:44.512Z,97645.87
2017-12-02T15:57:10.783Z,97647.67
2017-12-02T15:59:36.946Z,97646.89
2017-12-02T16:02:03.090Z,97645.59
2017-12-02T16:04:29.209Z,97650.61
2017-12-02T16:06:55.340Z,97644.17
2017-12-02T16:09:21.568Z,97650.10
2017-12-02T16:11:47.739Z,97646.66
2017-12-02T16:14:13.960Z,97641.92
2017-12-02T16:16:40.220Z,97640.45
2017-12-02T16:19:06.307Z,97641.08
2017-12-02T16:21:32.428Z,97636.34
2017-12-02T16:23:58.592Z,97631.54
2017-12-02T16:26:24.644Z,97633.05
2017-12-02T16:28:50.792Z,97637.46
2017-12-02T16:31:16.965Z,97635.55
2017-12-02T16:33:43.146Z,97643.23
2017-12-02T16:36:09.293Z,97644.22
2017-12-02T16:38:35.384Z,97647.39
2017-12-02T16:41:01.603Z,97652.19
2017-12-02T16:43:27.797Z,97648.35
2017-12-02T16:45:53.921Z,97653.30
2017-12-02T16:48:19.984Z,97652.23
2017-12-02T16:50:46.299Z,97657.48
2017-12-02T16:53:12.473Z,97662.91
2017-12-02T16:55:38.553Z,97659.87
2017-12-02T16:58:04.761Z,97670.47
2017-12-02T17:00:31.016Z,97663.81
2017-12-02T17:02:57.137Z,97667.64
2017-12-02T17:05:23.264Z,97670.70
2017-12-02T17:07:49.492Z,97666.39
2017-12-02T17:10:15.657Z,97675.94
2017-12-02T17:12:41.745Z,97674.68
2017-12-02T17:15:07.960Z,97667.53
2017-12-02T17:17:34.123Z,97673.11
2017-12-02T17:20:00.338Z,97670.67
2017-12-02T17:22:26.466Z,97671.58
2017-12-02T17:24:52.556Z,97670.47
2017-12-02T17:27:18.649Z,97667.42
2017-12-02T17:29:44.784Z,97674.64
2017-12-02T17:32:10.942Z,97677.06
2017-12-02T17:34:37.025Z,97683.52
2017-12-02T17:37:03.168Z,97682.15
2017-12-02T17:39:29.319Z,97691.02
2017-12-02T17:41:55.499Z,97688.81
2017-12-02T17:44:21.636Z,97687.23
2017-12-02T17:46:47.723Z,97685.71
2017-12-02T17:49:13.842Z,97697.70
2017-12-02T17:51:39.916Z,97694.22
2017-12-02T17:54:06.058Z,97694.38
2017-12-02T17:56:32.371Z,97697.90
2017-12-02T17:58:58.495Z,97699.53
2017-12-02T18:01:24.637Z,97692.13
2017-12-02T18:03:50.758Z,97696.64
2017-12-02T18:06:16.922Z,97690.73
2017-12-02T18:08:43.068Z,97687.45
2017-12-02T18:11:09.205Z,97689.19
2017-12-02T18:13:35.350Z,97686.88
2017-12-02T18:16:01.480Z,97682.98
2017-12-02T18:18:27.660Z,97682.75
2017-12-02T18:20:53.757Z,97677.56
2017-12-02T18:23:19.863Z,97686.36
2017-12-02T18:25:45.988Z,97691.45
2017-12-02T18:28:12.232Z,97693.08
2017-12-02T18:30:38.367Z,97694.03
2017-12-02T18:33:04.518Z,97696.12
2017-12-02T18:35:30.649Z,97693.70
2017-12-02T18:37:56.779Z,97689.52
2017-12-02T18:40:22.900Z,97690.03
2017-12-02T18:42:49.052Z,97687.44
2017-12-02T18:45:15.131Z,97693.39
2017-12-02T18:47:41.270Z,97687.89
2017-12-02T18:50:07.366Z,97684.45
2017-12-02T18:52:33.528Z,97690.84
2017-12-02T18:54:59.657Z,97694.71
2017-12-02T18:57:25.794Z,97690.64
2017-12-02T18:59:51.940Z,97695.89
2017-12-02T19:02:18.156Z,97694.47
2017-12-02T19:04:44.270Z,97695.61
2017-12-02T19:07:10.458Z,97694.58
2017-12-02T19:09:36.629Z,97686.14
2017-12-02T19:12:02.820Z,97696.91
2017-12-02T19:14:28.969Z,97696.73
2017-12-02T19:16:55.175Z,97689.13
2017-12-02T19:19:21.348Z,97691.39
2017-12-02T19:21:47.569Z,97690.30
2017-12-02T19:24:13.659Z,97689.34
2017-12-02T19:26:39.809Z,97688.00
2017-12-02T19:29:06.052Z,97688.45
2017-12-02T19:31:32.205Z,97688.27
2017-12-02T19:33:58.501Z,97690.46
2017-12-02T19:36:24.636Z,97694.40
2017-12-02T19:38:50.774Z,97690.83
2017-12-02T19:41:17.127Z,97695.94
2017-12-02T19:43:43.353Z,97693.39
2017-12-02T19:46:09.538Z,97696.54
2017-12-02T19:48:35.700Z,97704.05
2017-12-02T19:51:01.895Z,97703.92
2017-12-02T19:53:28.074Z,97708.66
2017-12-02T19:55:54.215Z,97701.17
2017-12-02T19:58:20.407Z,97697.88
2017-12-02T20:00:46.547Z,97700.36
2017-12-02T20:03:12.808Z,97700.55
2017-12-02T20:05:38.972Z,97697.18
2017-12-02T20:08:05.117Z,97702.52
2017-12-02T20:10:31.365Z,97697.22
2017-12-02T20:12:58.267Z,97691.39
2017-12-02T20:15:24.541Z,97677.47
2017-12-02T20:17:50.798Z,97688.05
2017-12-02T20:20:17.223Z,97699.76
2017-12-02T20:22:43.505Z,97694.05
2017-12-02T20:25:09.723Z,97692.93
2017-12-02T20:27:35.949Z,97691.92
2017-12-02T20:30:02.122Z,97686.59
2017-12-02T20:32:28.450Z,97687.89
2017-12-02T20:44:39.737Z,97694.23
2017-12-02T20:47:06.036Z,97687.06
2017-12-02T20:49:32.348Z,97689.94
2017-12-02T20:51:58.537Z,97690.27
2017-12-02T20:54:24.801Z,97688.69
2017-12-02T20:56:50.957Z,97687.83
2017-12-02T20:59:17.136Z,97689.16
2017-12-02T21:01:43.493Z,97683.19
2017-12-02T21:04:09.726Z,97692.00
2017-12-02T21:06:35.925Z,97685.59
2017-12-02T21:09:02.156Z,97685.34
2017-12-02T21:11:28.372Z,97682.35
2017-12-02T21:13:54.590Z,97683.47
2017-12-02T21:16:20.982Z,97684.69
2017-12-02T21:18:47.157Z,97689.79
2017-12-02T21:21:13.488Z,97686.59
2017-12-02T21:23:39.727Z,97686.50
2017-12-02T21:26:05.966Z,97676.20
2017-12-02T21:28:32.190Z,97686.37
2017-12-02T21:30:58.350Z,97689.09
2017-12-02T21:33:24.594Z,97691.84
2017-12-02T21:35:50.783Z,97687.31
2017-12-02T21:38:16.984Z,97691.52
2017-12-02T21:40:43.345Z,97681.38
2017-12-02T21:43:09.520Z,97681.09
2017-12-02T21:45:36.585Z,97681.53
2017-12-02T21:48:02.781Z,97677.33
2017-12-02T21:50:28.869Z,97689.66
2017-12-02T21:52:55.013Z,97680.16
2017-12-02T21:55:21.145Z,97679.69
2017-12-02T21:57:47.216Z,97681.31
2017-12-02T22:00:13.425Z,97674.84
2017-12-02T22:02:39.531Z,97675.48
2017-12-02T22:05:05.768Z,97675.08
2017-12-02T22:07:31.884Z,97673.53
2017-12-02T22:09:57.975Z,97679.22
2017-12-02T22:12:24.109Z,97672.39
2017-12-02T22:14:50.292Z,97671.28
2017-12-02T22:17:16.432Z,97668.30
2017-12-02T22:19:42.568Z,97668.36
2017-12-02T22:22:08.705Z,97668.71
2017-12-02T22:24:34.881Z,97659.05
2017-12-02T22:27:01.000Z,97677.67
2017-12-02T22:29:27.166Z,97672.64
2017-12-02T22:31:54.960Z,97674.25
2017-12-02T22:36:58.737Z,97658.28
2017-12-02T22:39:24.809Z,97666.23
2017-12-02T22:41:51.033Z,97663.17
2017-12-02T22:44:17.168Z,97659.41
2017-12-02T22:46:43.422Z,97659.92
2017-12-02T22:49:09.568Z,97666.19
2017-12-02T22:51:35.762Z,97671.11
2017-12-02T22:54:02.884Z,97669.64
2017-12-02T22:56:29.060Z,97665.34
2017-12-02T22:58:55.317Z,97670.20
2017-12-02T23:01:21.528Z,97664.47
2017-12-02T23:03:47.839Z,97663.19
2017-12-02T23:06:13.960Z,97662.44
2017-12-02T23:08:40.247Z,97660.60
2017-12-02T23:11:06.489Z,97667.30
2017-12-02T23:13:32.594Z,97675.42
2017-12-02T23:15:58.806Z,97664.39
2017-12-02T23:18:24.981Z,97670.78
2017-12-02T23:20:51.306Z,97676.87
2017-12-02T23:23:17.435Z,97678.66
2017-12-02T23:25:43.561Z,97680.97
2017-12-02T23:28:09.737Z,97675.59
2017-12-02T23:30:35.904Z,97679.77
2017-12-02T23:33:02.036Z,97687.31
2017-12-02T23:35:28.158Z,97683.36
2017-12-02T23:37:54.279Z,97682.97
2017-12-02T23:40:20.410Z,97673.51
2017-12-02T23:42:46.739Z,97666.53
2017-12-02T23:45:12.903Z,97663.36
2017-12-02T23:47:39.092Z,97659.91
2017-12-02T23:50:05.239Z,97663.09
2017-12-02T23:52:31.364Z,97665.84
2017-12-02T23:54:57.549Z,97667.26
2017-12-02T23:57:23.675Z,97674.63
2017-12-02T23:59:49.819Z,97668.06
